Time;durP1;ratioP1;P1;durP2;ratioP2;P2;SDS_P1;SDS_P2;PMS_P1;PMS_P2;Temp;Humidity;BMP_temperature;BMP_pressure;BME280_temperature;BME280_humidity;BME280_pressure;Samples;Min_cycle;Max_cycle;Signal;HPM_P1;HPM_P2
2023/03/16 00:00:55;;;;;;;5.90;3.30;;;6.90;73.40;;;;;;5116249;28;20096;-72
2023/03/16 00:03:21;;;;;;;8.10;3.50;;;6.80;74.10;;;;;;5116149;28;20103;-72
2023/03/16 00:05:51;;;;;;;7.70;3.72;;;6.70;74.10;;;;;;5115682;28;20020;-73
2023/03/16 00:08:18;;;;;;;11.43;3.40;;;6.70;74.00;;;;;;5116031;28;20076;-72
2023/03/16 00:10:47;;;;;;;9.68;3.55;;;6.60;75.00;;;;;;5116047;28;20502;-72
2023/03/16 00:13:17;;;;;;;6.03;2.60;;;6.60;75.30;;;;;;5115979;28;20520;-72
2023/03/16 00:15:50;;;;;;;6.68;2.90;;;6.70;75.30;;;;;;5116105;28;20016;-72
2023/03/16 00:18:16;;;;;;;6.13;2.92;;;6.60;75.70;;;;;;5115904;28;20103;-72
2023/03/16 00:20:42;;;;;;;5.28;3.20;;;6.60;75.40;;;;;;5114826;28;20039;-72
2023/03/16 00:23:07;;;;;;;5.75;3.17;;;6.60;75.90;;;;;;5115765;28;20087;-72
2023/03/16 00:25:33;;;;;;;6.93;3.38;;;6.50;76.30;;;;;;5097851;28;20096;-72
2023/03/16 00:28:02;;;;;;;6.38;3.85;;;6.50;76.60;;;;;;5114728;28;20024;-72
2023/03/16 00:30:31;;;;;;;5.78;3.15;;;6.60;76.50;;;;;;5115640;28;20024;-72
2023/03/16 00:32:57;;;;;;;6.50;3.15;;;6.60;76.20;;;;;;5115610;28;20027;-72
2023/03/16 00:35:23;;;;;;;6.63;2.70;;;6.50;76.30;;;;;;5115562;28;20028;-72
2023/03/16 00:37:49;;;;;;;5.75;3.15;;;6.50;76.60;;;;;;5115497;28;20066;-72
2023/03/16 00:40:15;;;;;;;6.53;3.35;;;6.40;76.80;;;;;;5114561;28;20043;-73
2023/03/16 00:42:41;;;;;;;7.00;3.20;;;6.50;76.60;;;;;;5115403;28;20026;-73
2023/03/16 00:45:07;;;;;;;7.88;3.63;;;6.60;76.50;;;;;;5114300;28;20043;-72
2023/03/16 00:47:34;;;;;;;6.10;2.90;;;6.60;76.70;;;;;;5115261;28;20051;-73
2023/03/16 00:50:00;;;;;;;6.28;2.97;;;6.60;76.60;;;;;;5115277;28;20028;-72
2023/03/16 00:52:27;;;;;;;6.07;2.88;;;6.50;76.90;;;;;;5115075;28;20102;-73
2023/03/16 00:54:53;;;;;;;4.75;2.83;;;6.50;77.20;;;;;;5115161;28;20027;-72
2023/03/16 00:57:21;;;;;;;6.00;2.30;;;6.50;77.30;;;;;;5115117;28;20032;-73
2023/03/16 00:59:47;;;;;;;4.10;2.97;;;6.40;77.30;;;;;;5115020;28;20035;-73
2023/03/16 01:02:16;;;;;;;9.48;3.78;;;6.40;77.90;;;;;;5115029;28;20075;-72
2023/03/16 01:04:42;;;;;;;5.57;3.20;;;6.40;78.00;;;;;;5115001;28;20593;-73
2023/03/16 01:07:11;;;;;;;6.18;3.17;;;6.40;78.00;;;;;;5114094;28;20063;-72
2023/03/16 01:09:38;;;;;;;7.55;3.22;;;6.40;78.00;;;;;;5114813;28;20024;-72
2023/03/16 01:12:08;;;;;;;2.63;1.98;;;6.40;78.00;;;;;;5114837;28;20042;-73
2023/03/16 01:14:35;;;;;;;7.30;3.25;;;6.30;78.30;;;;;;5114827;28;20034;-72
2023/03/16 01:17:01;;;;;;;6.72;3.25;;;6.40;78.40;;;;;;5114733;28;20077;-73
2023/03/16 01:19:28;;;;;;;4.85;2.72;;;6.40;78.60;;;;;;5113754;28;20039;-72
2023/03/16 01:21:54;;;;;;;5.28;2.88;;;6.40;78.80;;;;;;5114661;28;20046;-73
2023/03/16 01:24:20;;;;;;;5.82;3.25;;;6.40;78.70;;;;;;5113589;28;20012;-72
2023/03/16 01:26:46;;;;;;;8.73;3.00;;;6.40;78.80;;;;;;5114552;28;20024;-72
2023/03/16 01:29:11;;;;;;;5.88;2.85;;;6.40;78.40;;;;;;5113607;28;20039;-72
2023/03/16 01:31:38;;;;;;;4.15;2.60;;;6.50;78.40;;;;;;5113428;28;20032;-72
2023/03/16 01:34:04;;;;;;;4.97;2.92;;;6.50;78.10;;;;;;5114418;28;20057;-72
2023/03/16 01:36:30;;;;;;;7.57;2.83;;;6.50;78.30;;;;;;5114374;28;20040;-72
2023/03/16 01:38:57;;;;;;;5.28;3.00;;;6.50;78.10;;;;;;5114245;28;20088;-73
2023/03/16 01:41:24;;;;;;;7.00;2.63;;;6.50;78.20;;;;;;5114252;28;20050;-72
2023/03/16 01:43:50;;;;;;;6.47;3.10;;;6.50;78.40;;;;;;5113271;28;20016;-72
2023/03/16 01:46:23;;;;;;;5.90;2.65;;;6.50;78.10;;;;;;5114235;28;20076;-72
2023/03/16 01:48:58;;;;;;;5.60;2.85;;;6.50;78.10;;;;;;5114193;28;20073;-73
2023/03/16 01:51:55;;;;;;;4.47;2.40;;;6.50;78.00;;;;;;5113942;28;20078;-73
2023/03/16 01:54:26;;;;;;;4.90;2.72;;;6.50;77.90;;;;;;5113173;28;20019;-73
2023/03/16 01:57:12;;;;;;;5.68;2.47;;;6.40;78.40;;;;;;5114219;28;20111;-72
2023/03/16 01:59:49;;;;;;;4.78;2.85;;;6.40;78.60;;;;;;5113972;28;20028;-72
2023/03/16 02:02:19;;;;;;;4.88;2.72;;;6.40;78.40;;;;;;5114137;28;20043;-72
2023/03/16 02:04:48;;;;;;;4.40;2.53;;;6.40;78.30;;;;;;5113891;28;20062;-72
2023/03/16 02:07:16;;;;;;;6.13;2.80;;;6.40;78.30;;;;;;5112851;28;20048;-72
2023/03/16 02:09:45;;;;;;;4.40;2.53;;;6.40;78.30;;;;;;5113764;28;20050;-73
2023/03/16 02:12:17;;;;;;;5.82;2.75;;;6.40;78.50;;;;;;5113776;28;20035;-72
2023/03/16 02:14:47;;;;;;;4.90;2.38;;;6.30;78.80;;;;;;5113066;28;20032;-73
2023/03/16 02:17:15;;;;;;;4.13;2.47;;;6.30;78.70;;;;;;5113765;28;20061;-73
2023/03/16 02:20:13;;;;;;;4.07;2.60;;;6.30;78.80;;;;;;5113589;28;20427;-73
2023/03/16 02:22:44;;;;;;;4.47;2.20;;;6.20;79.10;;;;;;5113865;28;20031;-72
2023/03/16 02:25:11;;;;;;;4.85;2.65;;;6.20;78.70;;;;;;5112682;28;20020;-72
2023/03/16 02:27:42;;;;;;;4.07;2.30;;;6.20;79.00;;;;;;5112698;28;20019;-72
2023/03/16 02:30:16;;;;;;;4.78;2.25;;;6.10;79.30;;;;;;5112440;28;20032;-73
2023/03/16 02:32:44;;;;;;;5.03;2.55;;;6.10;79.60;;;;;;5112465;28;20024;-72
2023/03/16 02:35:11;;;;;;;3.53;2.15;;;6.10;79.20;;;;;;5113508;28;20020;-72
2023/03/16 02:37:38;;;;;;;3.58;1.88;;;6.20;79.10;;;;;;5113484;28;20062;-72
2023/03/16 02:40:20;;;;;;;4.65;2.50;;;6.20;78.80;;;;;;5113395;28;20024;-72
2023/03/16 02:42:53;;;;;;;2.75;1.75;;;6.10;79.90;;;;;;5113518;28;20050;-72
2023/03/16 02:45:20;;;;;;;4.50;2.20;;;6.20;79.10;;;;;;5113489;28;20016;-72
2023/03/16 02:47:50;;;;;;;6.80;2.35;;;6.10;79.30;;;;;;5113409;28;20032;-73
2023/03/16 02:50:16;;;;;;;4.15;2.10;;;6.10;80.40;;;;;;5113388;28;20103;-72
2023/03/16 02:52:41;;;;;;;4.30;2.20;;;6.10;80.30;;;;;;5113207;28;20052;-73
2023/03/16 02:55:07;;;;;;;6.05;2.45;;;6.20;80.00;;;;;;5113380;28;20032;-72
2023/03/16 02:57:33;;;;;;;5.18;2.25;;;6.10;79.50;;;;;;5112396;28;20028;-72
2023/03/16 03:00:00;;;;;;;4.65;2.42;;;6.20;80.00;;;;;;5113214;28;20035;-72
2023/03/16 03:02:26;;;;;;;3.78;2.05;;;6.20;79.90;;;;;;5112278;28;20043;-73
2023/03/16 03:04:53;;;;;;;3.50;2.35;;;6.10;80.40;;;;;;5113264;28;20020;-72
2023/03/16 03:07:20;;;;;;;3.15;2.28;;;6.20;80.40;;;;;;5113249;28;20021;-72
2023/03/16 03:09:45;;;;;;;3.22;2.10;;;6.20;80.50;;;;;;5112197;28;20121;-72
2023/03/16 03:12:12;;;;;;;4.97;2.35;;;6.10;80.60;;;;;;5112185;28;20036;-72
2023/03/16 03:14:38;;;;;;;4.50;2.17;;;6.10;80.50;;;;;;5112150;28;20043;-73
2023/03/16 03:17:08;;;;;;;5.07;2.90;;;6.10;81.00;;;;;;5113136;28;20024;-72
2023/03/16 03:19:35;;;;;;;3.90;2.42;;;6.20;81.40;;;;;;5113076;28;20021;-72
2023/03/16 03:22:04;;;;;;;5.10;2.80;;;6.10;81.50;;;;;;5113081;28;20024;-72
2023/03/16 03:24:30;;;;;;;3.83;2.17;;;6.00;82.40;;;;;;5113066;28;20039;-72
2023/03/16 03:26:59;;;;;;;3.40;2.03;;;5.90;83.50;;;;;;5112141;28;20020;-72
2023/03/16 03:29:33;;;;;;;4.97;2.20;;;5.90;83.50;;;;;;5113185;28;20051;-72
2023/03/16 03:32:02;;;;;;;3.15;1.80;;;5.90;83.10;;;;;;5113139;28;20031;-72
2023/03/16 03:34:28;;;;;;;4.05;2.15;;;5.90;82.70;;;;;;5112984;28;20031;-72
2023/03/16 03:36:54;;;;;;;5.88;2.67;;;6.00;83.50;;;;;;5112957;28;20024;-72
2023/03/16 03:39:20;;;;;;;4.43;2.22;;;6.00;83.00;;;;;;5112863;28;20042;-72
2023/03/16 03:41:45;;;;;;;5.38;2.08;;;6.00;83.10;;;;;;5114316;28;20028;-73
2023/03/16 03:44:11;;;;;;;3.58;2.25;;;6.00;83.90;;;;;;5116556;28;20028;-72
2023/03/16 03:46:36;;;;;;;4.38;2.17;;;6.00;83.90;;;;;;5116536;28;20031;-72
2023/03/16 03:49:05;;;;;;;3.92;2.10;;;6.00;83.80;;;;;;5116518;28;20024;-72
2023/03/16 03:51:32;;;;;;;4.50;2.55;;;6.00;83.90;;;;;;5116230;28;20063;-72
2023/03/16 03:53:58;;;;;;;4.05;2.55;;;6.10;83.70;;;;;;5116365;28;20050;-72
2023/03/16 03:56:25;;;;;;;4.40;2.40;;;6.00;83.90;;;;;;5116331;28;20024;-72
2023/03/16 03:58:51;;;;;;;5.53;2.50;;;6.00;84.40;;;;;;5116224;28;20028;-72
2023/03/16 04:01:16;;;;;;;3.60;2.25;;;6.00;84.10;;;;;;5116236;28;20027;-73
2023/03/16 04:03:42;;;;;;;5.13;2.50;;;5.90;84.10;;;;;;5116220;28;20020;-73
2023/03/16 04:06:07;;;;;;;3.85;2.08;;;5.90;84.80;;;;;;5116143;28;20492;-72
2023/03/16 04:08:34;;;;;;;4.75;2.00;;;6.00;84.40;;;;;;5116033;28;20117;-72
2023/03/16 04:10:59;;;;;;;4.75;2.42;;;6.00;84.00;;;;;;5116046;28;20107;-72
2023/03/16 04:13:25;;;;;;;4.72;2.33;;;6.10;84.00;;;;;;5116018;28;20028;-72
2023/03/16 04:16:01;;;;;;;3.38;2.17;;;6.10;83.90;;;;;;5116108;28;20030;-72
2023/03/16 04:18:27;;;;;;;5.18;2.25;;;6.10;83.90;;;;;;5115000;28;20044;-72
2023/03/16 04:20:53;;;;;;;7.28;2.10;;;6.10;83.70;;;;;;5115793;28;20027;-72
2023/03/16 04:23:19;;;;;;;5.13;2.42;;;6.10;83.70;;;;;;5115805;28;20483;-73
2023/03/16 04:25:45;;;;;;;5.65;2.50;;;6.10;84.00;;;;;;5115781;28;20031;-72
2023/03/16 04:28:11;;;;;;;4.47;2.28;;;6.10;83.80;;;;;;5115740;28;20024;-72
2023/03/16 04:30:37;;;;;;;4.50;2.20;;;6.10;83.60;;;;;;5115701;28;20499;-72
2023/03/16 04:33:03;;;;;;;3.65;2.05;;;6.20;83.90;;;;;;5115611;28;20463;-72
2023/03/16 04:35:30;;;;;;;3.47;2.22;;;6.20;83.30;;;;;;5097872;28;20055;-72
2023/03/16 04:37:56;;;;;;;4.68;2.15;;;6.10;83.30;;;;;;5115512;28;20042;-72
2023/03/16 04:40:22;;;;;;;5.35;2.58;;;6.10;83.60;;;;;;5115417;28;20048;-72
2023/03/16 04:42:48;;;;;;;5.07;1.98;;;6.00;83.90;;;;;;5115440;28;20080;-72
2023/03/16 04:45:16;;;;;;;5.68;2.70;;;6.10;83.80;;;;;;5115331;28;20025;-73
2023/03/16 04:47:42;;;;;;;3.05;2.00;;;6.10;83.70;;;;;;5115349;28;20063;-72
2023/03/16 04:50:09;;;;;;;3.80;1.88;;;6.10;83.70;;;;;;5114316;28;20024;-72
2023/03/16 04:52:36;;;;;;;3.35;2.13;;;6.10;84.10;;;;;;5115006;28;20056;-72
2023/03/16 04:55:01;;;;;;;3.63;2.03;;;6.10;84.00;;;;;;5115168;28;20032;-72
2023/03/16 04:57:27;;;;;;;5.00;2.17;;;6.20;83.20;;;;;;5114323;28;20028;-72
2023/03/16 04:59:52;;;;;;;3.78;2.05;;;6.20;83.70;;;;;;5115016;28;20034;-72
2023/03/16 05:02:19;;;;;;;3.75;2.08;;;6.10;83.30;;;;;;5115042;28;20060;-72
2023/03/16 05:04:45;;;;;;;4.90;2.38;;;6.10;83.10;;;;;;5115008;28;20085;-72
2023/03/16 05:07:11;;;;;;;6.68;2.60;;;6.10;83.60;;;;;;5114908;28;20037;-72
2023/03/16 05:09:36;;;;;;;6.03;3.67;;;6.10;83.50;;;;;;5113989;28;20035;-72
2023/03/16 05:12:02;;;;;;;6.18;3.33;;;6.10;83.90;;;;;;5114891;28;20052;-73
2023/03/16 05:14:28;;;;;;;5.63;3.10;;;6.10;83.70;;;;;;5114872;28;20031;-72
2023/03/16 05:16:53;;;;;;;4.55;2.55;;;6.00;83.60;;;;;;5114718;28;20032;-72
2023/03/16 05:19:19;;;;;;;5.60;3.30;;;6.10;84.00;;;;;;5114684;28;20059;-72
2023/03/16 05:21:44;;;;;;;3.75;2.15;;;6.00;83.80;;;;;;5114701;28;20083;-73
2023/03/16 05:24:11;;;;;;;6.60;2.63;;;6.00;84.10;;;;;;5114637;28;20028;-72
2023/03/16 05:26:36;;;;;;;4.70;2.10;;;6.00;84.00;;;;;;5114589;28;20042;-72
2023/03/16 05:29:02;;;;;;;6.20;2.42;;;5.90;84.40;;;;;;5114501;28;20028;-72
2023/03/16 05:31:31;;;;;;;5.38;2.45;;;5.90;84.20;;;;;;5113499;28;20087;-73
2023/03/16 05:33:57;;;;;;;3.13;1.67;;;6.00;84.40;;;;;;5114483;28;20024;-72
2023/03/16 05:36:23;;;;;;;5.25;2.85;;;5.90;84.20;;;;;;5114429;28;20024;-72
2023/03/16 05:38:49;;;;;;;4.50;2.40;;;5.90;84.20;;;;;;5114268;28;20043;-72
2023/03/16 05:41:17;;;;;;;6.30;2.72;;;5.90;84.10;;;;;;5114296;28;20080;-72
2023/03/16 05:43:43;;;;;;;8.75;3.03;;;6.00;84.00;;;;;;5114243;28;20017;-72
2023/03/16 05:46:09;;;;;;;9.63;3.00;;;6.00;84.40;;;;;;5114215;28;20079;-72
2023/03/16 05:48:34;;;;;;;4.32;2.47;;;6.00;84.50;;;;;;5114172;28;20399;-73
2023/03/16 05:51:01;;;;;;;6.20;2.83;;;6.00;84.40;;;;;;5113958;28;20099;-73
2023/03/16 05:53:27;;;;;;;3.45;2.33;;;6.00;84.50;;;;;;5113185;28;20031;-73
2023/03/16 05:55:53;;;;;;;6.63;2.40;;;6.10;84.10;;;;;;5114050;28;20019;-72
2023/03/16 05:58:20;;;;;;;6.45;2.42;;;6.10;84.20;;;;;;5114037;28;20020;-73
2023/03/16 06:00:45;;;;;;;3.72;2.35;;;6.00;84.70;;;;;;5112943;28;20020;-73
2023/03/16 06:03:11;;;;;;;3.85;1.98;;;6.00;84.30;;;;;;5113942;28;20024;-73
2023/03/16 06:05:37;;;;;;;5.20;2.15;;;6.10;84.60;;;;;;5113463;28;20027;-72
2023/03/16 06:08:03;;;;;;;6.65;2.78;;;6.10;84.10;;;;;;5113809;28;20028;-73
2023/03/16 06:10:29;;;;;;;5.72;2.22;;;6.20;83.90;;;;;;5112849;28;20080;-71
2023/03/16 06:12:54;;;;;;;5.40;2.58;;;6.20;84.30;;;;;;5112800;28;20027;-72
2023/03/16 06:15:23;;;;;;;6.03;2.45;;;6.20;84.30;;;;;;5113761;28;20434;-73
2023/03/16 06:17:49;;;;;;;4.32;2.60;;;6.20;84.90;;;;;;5112682;28;20027;-72
2023/03/16 06:20:16;;;;;;;7.10;2.75;;;6.20;84.80;;;;;;5112701;28;20031;-73
2023/03/16 06:22:42;;;;;;;4.38;2.22;;;6.20;84.90;;;;;;5113578;28;20012;-73
2023/03/16 06:25:10;;;;;;;4.68;2.03;;;6.20;85.20;;;;;;5113631;28;20034;-73
2023/03/16 06:27:36;;;;;;;5.18;2.40;;;6.20;84.90;;;;;;5112706;28;20031;-73
2023/03/16 06:30:03;;;;;;;5.35;2.70;;;6.20;85.30;;;;;;5113577;28;20024;-73
2023/03/16 06:32:29;;;;;;;5.95;2.30;;;6.20;85.10;;;;;;5113604;28;20051;-73
2023/03/16 06:34:54;;;;;;;5.15;2.47;;;6.20;84.70;;;;;;5113548;28;20050;-72
2023/03/16 06:37:20;;;;;;;4.25;2.13;;;6.20;84.80;;;;;;5113511;28;20024;-73
2023/03/16 06:39:46;;;;;;;4.75;2.42;;;6.20;85.30;;;;;;5113416;28;20154;-72
2023/03/16 06:42:12;;;;;;;3.97;2.53;;;6.20;85.30;;;;;;5113456;28;20028;-73
2023/03/16 06:44:37;;;;;;;6.65;2.70;;;6.20;85.60;;;;;;5113448;28;20020;-73
2023/03/16 06:47:03;;;;;;;5.90;2.70;;;6.20;85.80;;;;;;5113429;28;20024;-73
2023/03/16 06:49:29;;;;;;;3.17;1.90;;;6.20;86.20;;;;;;5113422;28;20028;-72
2023/03/16 06:51:57;;;;;;;4.88;2.25;;;6.30;86.20;;;;;;5112136;28;20056;-72
2023/03/16 06:54:23;;;;;;;4.05;2.70;;;6.30;86.10;;;;;;5113348;28;20039;-72
2023/03/16 06:56:49;;;;;;;5.78;2.58;;;6.30;86.70;;;;;;5113344;28;20028;-73
2023/03/16 06:59:15;;;;;;;4.05;2.42;;;6.30;86.60;;;;;;5113162;28;20035;-73
2023/03/16 07:01:41;;;;;;;7.75;2.92;;;6.30;86.40;;;;;;5112406;28;20024;-73
2023/03/16 07:04:07;;;;;;;5.13;2.40;;;6.30;87.00;;;;;;5113260;28;20086;-73
2023/03/16 07:06:33;;;;;;;4.97;2.55;;;6.40;87.40;;;;;;5113221;28;20047;-73
2023/03/16 07:09:00;;;;;;;5.53;2.55;;;6.40;87.10;;;;;;5113167;28;20020;-72
2023/03/16 07:11:25;;;;;;;6.30;2.80;;;6.40;88.10;;;;;;5113221;28;20020;-73
2023/03/16 07:13:51;;;;;;;5.93;2.72;;;6.30;87.90;;;;;;5112846;28;20058;-73
2023/03/16 07:16:17;;;;;;;5.00;2.55;;;6.30;88.30;;;;;;5112810;28;20032;-73
2023/03/16 07:18:43;;;;;;;9.30;2.47;;;6.30;88.80;;;;;;5116074;28;20034;-73
2023/03/16 07:21:09;;;;;;;6.05;2.28;;;6.30;89.00;;;;;;5117037;28;20075;-73
2023/03/16 07:23:35;;;;;;;4.47;1.95;;;6.20;89.20;;;;;;5117007;28;20020;-73
2023/03/16 07:26:01;;;;;;;5.70;2.70;;;6.20;90.20;;;;;;5116063;28;20028;-73
2023/03/16 07:28:26;;;;;;;5.68;2.53;;;6.20;90.40;;;;;;5116922;28;20098;-73
2023/03/16 07:30:52;;;;;;;7.88;2.30;;;6.20;90.20;;;;;;5115781;28;20035;-73
2023/03/16 07:33:18;;;;;;;7.40;3.10;;;6.30;90.00;;;;;;5116801;28;20031;-73
2023/03/16 07:35:43;;;;;;;5.95;2.67;;;6.30;90.80;;;;;;5116713;28;20028;-73
2023/03/16 07:38:11;;;;;;;9.00;2.90;;;6.30;90.50;;;;;;5116712;28;20054;-73
2023/03/16 07:40:38;;;;;;;5.85;2.83;;;6.30;90.60;;;;;;5116722;28;20031;-73
2023/03/16 07:43:04;;;;;;;2.30;1.60;;;6.30;90.30;;;;;;5116641;28;20031;-73
2023/03/16 07:45:30;;;;;;;3.72;2.20;;;6.30;90.50;;;;;;5116577;28;20028;-73
2023/03/16 07:47:56;;;;;;;6.38;2.47;;;6.30;90.60;;;;;;5115772;28;20050;-73
2023/03/16 07:50:21;;;;;;;5.20;2.90;;;6.40;90.60;;;;;;5115613;28;20092;-73
2023/03/16 07:52:47;;;;;;;5.95;3.20;;;6.30;90.70;;;;;;5116274;28;20098;-73
2023/03/16 07:55:13;;;;;;;7.07;3.28;;;6.40;90.70;;;;;;5115446;28;20050;-73
2023/03/16 07:57:40;;;;;;;5.07;2.95;;;6.40;90.70;;;;;;5115438;28;20490;-73
2023/03/16 08:00:07;;;;;;;6.53;3.15;;;6.50;90.90;;;;;;5116214;28;20092;-73
2023/03/16 08:02:33;;;;;;;5.07;2.10;;;6.50;90.90;;;;;;5115267;28;20026;-73
2023/03/16 08:04:59;;;;;;;6.20;2.95;;;6.50;91.10;;;;;;5116215;28;20012;-73
2023/03/16 08:07:25;;;;;;;3.78;2.08;;;6.50;91.00;;;;;;5116110;28;20024;-73
2023/03/16 08:09:51;;;;;;;3.63;2.15;;;6.50;90.80;;;;;;5116044;28;20028;-73
2023/03/16 08:12:17;;;;;;;5.30;2.65;;;6.50;91.10;;;;;;5116094;28;20035;-73
2023/03/16 08:14:44;;;;;;;4.22;2.40;;;6.50;91.10;;;;;;5115041;28;20104;-73
2023/03/16 08:17:11;;;;;;;3.65;2.28;;;6.60;90.90;;;;;;5115994;28;20024;-73
2023/03/16 08:19:37;;;;;;;6.50;3.15;;;6.60;91.20;;;;;;5114880;28;20024;-73
2023/03/16 08:22:04;;;;;;;5.57;3.00;;;6.60;91.20;;;;;;5115898;28;20047;-73
2023/03/16 08:24:30;;;;;;;7.15;3.08;;;6.50;91.30;;;;;;5115827;28;20020;-73
2023/03/16 08:26:57;;;;;;;5.97;2.90;;;6.60;91.40;;;;;;5115356;28;20024;-73
2023/03/16 08:29:24;;;;;;;4.38;2.63;;;6.60;91.00;;;;;;5115719;28;20030;-73
2023/03/16 08:31:51;;;;;;;4.20;1.75;;;6.60;91.10;;;;;;5115676;28;20021;-73
2023/03/16 08:34:16;;;;;;;4.78;2.70;;;6.60;90.80;;;;;;5115641;28;20083;-73
2023/03/16 08:36:43;;;;;;;5.40;2.25;;;6.60;91.10;;;;;;5114739;28;20043;-73
2023/03/16 08:39:09;;;;;;;6.63;2.90;;;6.70;91.00;;;;;;5114612;28;20032;-73
2023/03/16 08:41:35;;;;;;;4.55;2.05;;;6.80;91.20;;;;;;5114423;28;20039;-73
2023/03/16 08:44:01;;;;;;;7.80;3.17;;;6.80;91.10;;;;;;5115412;28;20020;-73
2023/03/16 08:46:27;;;;;;;3.60;2.22;;;6.90;90.80;;;;;;5115359;28;20099;-73
2023/03/16 08:48:54;;;;;;;3.03;1.85;;;7.00;90.70;;;;;;5115282;28;20024;-73
2023/03/16 08:51:20;;;;;;;3.75;2.20;;;7.00;90.40;;;;;;5115030;28;20021;-73
2023/03/16 08:53:46;;;;;;;6.40;3.00;;;7.10;90.50;;;;;;5114287;28;20023;-73
2023/03/16 08:56:13;;;;;;;4.95;2.20;;;7.10;90.30;;;;;;5115115;28;20032;-73
2023/03/16 08:58:44;;;;;;;6.05;1.98;;;7.10;90.60;;;;;;5115026;28;20012;-73
2023/03/16 09:01:12;;;;;;;3.75;2.20;;;7.10;90.00;;;;;;5114411;28;20053;-73
2023/03/16 09:03:39;;;;;;;4.68;2.30;;;7.10;90.00;;;;;;5115025;28;20020;-72
2023/03/16 09:06:08;;;;;;;6.18;2.50;;;7.20;90.40;;;;;;5115016;28;20020;-73
2023/03/16 09:08:35;;;;;;;4.07;2.15;;;7.30;89.60;;;;;;5113815;28;20021;-73
2023/03/16 09:11:13;;;;;;;3.10;1.90;;;7.30;89.40;;;;;;5114923;28;20459;-73
2023/03/16 09:13:39;;;;;;;3.47;2.00;;;7.40;89.10;;;;;;5113814;28;20016;-73
2023/03/16 09:16:07;;;;;;;3.58;1.98;;;7.40;89.10;;;;;;5114790;28;20016;-73
2023/03/16 09:18:34;;;;;;;3.65;1.83;;;7.40;90.30;;;;;;5114717;28;20034;-73
2023/03/16 09:21:01;;;;;;;4.60;2.58;;;7.50;88.60;;;;;;5096940;28;20027;-73
2023/03/16 09:23:28;;;;;;;4.25;1.83;;;7.50;88.10;;;;;;5114632;28;20029;-73
2023/03/16 09:25:58;;;;;;;3.97;2.38;;;7.50;88.30;;;;;;5114451;28;20035;-73
2023/03/16 09:28:26;;;;;;;4.90;2.38;;;7.60;88.70;;;;;;5114499;28;20387;-73
2023/03/16 09:30:53;;;;;;;4.97;2.15;;;7.70;87.90;;;;;;5114437;28;20028;-73
2023/03/16 09:33:20;;;;;;;3.72;2.08;;;7.60;87.70;;;;;;5114439;28;20088;-73
2023/03/16 09:35:46;;;;;;;1.58;1.20;;;7.70;87.70;;;;;;5114346;28;20028;-73
2023/03/16 09:38:12;;;;;;;6.07;2.80;;;7.70;89.20;;;;;;5113276;28;20039;-73
2023/03/16 09:40:40;;;;;;;5.13;2.28;;;7.80;87.50;;;;;;5112613;28;20016;-73
2023/03/16 09:43:27;;;;;;;2.80;1.65;;;7.80;87.30;;;;;;5114258;28;20035;-73
2023/03/16 09:46:09;;;;;;;3.28;2.08;;;7.80;86.80;;;;;;5114222;28;20038;-73
2023/03/16 09:48:37;;;;;;;4.47;2.25;;;7.90;87.00;;;;;;5113192;28;20028;-73
2023/03/16 09:51:06;;;;;;;3.95;2.03;;;7.90;86.00;;;;;;5114105;28;20024;-73
2023/03/16 09:53:38;;;;;;;4.15;2.10;;;8.00;87.20;;;;;;5113875;28;20040;-73
2023/03/16 09:56:14;;;;;;;8.38;1.90;;;8.00;87.10;;;;;;5114078;28;20032;-73
2023/03/16 09:58:40;;;;;;;3.78;2.28;;;8.10;87.00;;;;;;5114004;28;20032;-73
2023/03/16 10:01:35;;;;;;;4.65;2.00;;;8.30;87.20;;;;;;5112975;28;20028;-73
2023/03/16 10:04:15;;;;;;;7.30;2.42;;;8.30;87.70;;;;;;5114123;28;20012;-73
2023/03/16 10:07:08;;;;;;;3.05;1.55;;;8.40;85.90;;;;;;5114093;28;20031;-73
2023/03/16 10:09:49;;;;;;;8.50;2.50;;;8.50;85.50;;;;;;5113821;28;20109;-73
2023/03/16 10:12:15;;;;;;;3.70;2.00;;;8.60;84.80;;;;;;5113981;28;20016;-73
2023/03/16 10:14:56;;;;;;;5.25;2.00;;;8.60;84.90;;;;;;5113725;28;20091;-73
2023/03/16 10:17:40;;;;;;;5.32;2.15;;;8.70;85.40;;;;;;5113778;28;20027;-73
2023/03/16 10:20:12;;;;;;;5.38;2.60;;;8.80;85.40;;;;;;5113633;28;20028;-73
2023/03/16 10:22:41;;;;;;;;;;;8.80;84.40;;;;;;5113087;28;20019;-73
2023/03/16 10:25:06;;;;;;;7.50;2.45;;;8.90;84.50;;;;;;5113624;28;19940;-74
2023/03/16 10:27:35;;;;;;;2.53;1.23;;;9.10;83.40;;;;;;5113529;28;20024;-73
2023/03/16 10:30:03;;;;;;;5.32;2.33;;;9.10;81.80;;;;;;5113496;28;20028;-73
2023/03/16 10:32:35;;;;;;;7.63;2.42;;;9.30;81.90;;;;;;5113485;28;20062;-73
2023/03/16 10:35:28;;;;;;;3.10;1.90;;;9.40;83.90;;;;;;5113613;28;20053;-73
2023/03/16 10:37:55;;;;;;;4.00;2.08;;;9.70;81.70;;;;;;5103285;28;20088;-73
2023/03/16 10:40:22;;;;;;;3.95;1.83;;;9.80;79.60;;;;;;5112342;28;20036;-73
2023/03/16 10:42:48;;;;;;;3.17;1.83;;;9.70;78.90;;;;;;5113374;28;20027;-73
2023/03/16 10:45:29;;;;;;;4.07;2.40;;;9.80;78.80;;;;;;5113378;28;20107;-73
2023/03/16 10:48:25;;;;;;;4.13;1.92;;;10.00;78.10;;;;;;5113378;28;20020;-73
2023/03/16 10:50:55;;;;;;;5.80;2.20;;;10.10;77.40;;;;;;5093299;28;20058;-73
2023/03/16 10:53:28;;;;;;;3.63;1.70;;;10.10;77.70;;;;;;5117481;28;20044;-73
2023/03/16 10:56:00;;;;;;;4.30;2.47;;;10.20;77.60;;;;;;5117468;28;20024;-73
2023/03/16 10:58:31;;;;;;;3.83;2.20;;;10.30;78.20;;;;;;5117417;28;20023;-73
2023/03/16 11:00:57;;;;;;;4.18;2.03;;;10.40;78.20;;;;;;5117342;28;20040;-73
2023/03/16 11:03:40;;;;;;;4.97;2.50;;;10.50;76.70;;;;;;5117325;28;20031;-73
2023/03/16 11:06:07;;;;;;;5.07;2.38;;;10.70;77.50;;;;;;5116253;28;20031;-73
2023/03/16 11:08:37;;;;;;;3.08;1.88;;;10.90;76.80;;;;;;5115058;28;20090;-75
2023/03/16 11:11:31;;;;;;;6.18;2.33;;;10.80;74.30;;;;;;5117139;28;20016;-75
2023/03/16 11:13:59;;;;;;;3.67;2.00;;;11.00;75.40;;;;;;5117225;28;20032;-75
2023/03/16 11:16:57;;;;;;;5.35;2.38;;;11.10;74.30;;;;;;5117049;28;20024;-75
2023/03/16 11:19:26;;;;;;;3.58;2.47;;;11.30;72.60;;;;;;5085621;28;20067;-75
2023/03/16 11:22:11;;;;;;;5.40;2.33;;;11.20;72.20;;;;;;5116932;28;20099;-75
2023/03/16 11:25:08;;;;;;;4.35;2.13;;;11.20;73.60;;;;;;5116978;28;20013;-74
2023/03/16 11:27:58;;;;;;;5.25;2.45;;;11.00;71.00;;;;;;5116957;28;20032;-74
2023/03/16 11:30:32;;;;;;;5.18;2.20;;;11.00;74.70;;;;;;5116895;28;20040;-74
2023/03/16 11:32:59;;;;;;;6.30;2.20;;;11.10;74.00;;;;;;5116901;28;20024;-74
2023/03/16 11:35:50;;;;;;;3.85;2.15;;;11.00;74.30;;;;;;5115922;28;20020;-75
2023/03/16 11:38:25;;;;;;;2.80;1.80;;;11.00;73.90;;;;;;5116764;28;20028;-74
2023/03/16 11:41:01;;;;;;;1.85;1.38;;;10.90;72.40;;;;;;5116670;28;20039;-74
2023/03/16 11:43:54;;;;;;;4.72;2.35;;;10.90;71.90;;;;;;5116597;28;20058;-74
2023/03/16 11:46:27;;;;;;;2.55;1.50;;;11.00;73.50;;;;;;5116666;28;20020;-74
2023/03/16 11:49:46;;;;;;;3.53;2.10;;;11.00;71.20;;;;;;5115458;28;20042;-74
2023/03/16 11:52:38;;;;;;;5.30;1.85;;;11.00;72.30;;;;;;5116264;28;20052;-75
2023/03/16 11:55:23;;;;;;;3.50;2.05;;;11.00;71.40;;;;;;5115580;28;20042;-75
2023/03/16 11:58:10;;;;;;;3.97;2.38;;;11.10;72.60;;;;;;5116545;28;20024;-74
2023/03/16 12:01:10;;;;;;;5.32;1.88;;;11.20;74.10;;;;;;5116301;28;20059;-74
2023/03/16 12:04:00;;;;;;;5.78;2.50;;;11.10;71.20;;;;;;5115520;28;20020;-74
2023/03/16 12:06:38;;;;;;;7.43;2.63;;;11.10;72.50;;;;;;5116457;28;20031;-75
2023/03/16 12:09:30;;;;;;;4.93;1.90;;;11.20;73.10;;;;;;5116168;28;20028;-74
2023/03/16 12:12:16;;;;;;;4.53;2.28;;;11.30;73.30;;;;;;5115140;28;20102;-74
2023/03/16 12:14:57;;;;;;;3.95;1.90;;;11.40;72.30;;;;;;5116144;28;20040;-74
2023/03/16 12:17:28;;;;;;;3.25;2.03;;;11.50;71.80;;;;;;5116141;28;20044;-74
2023/03/16 12:20:38;;;;;;;4.32;1.88;;;11.50;73.60;;;;;;5114908;28;20132;-74
2023/03/16 12:23:10;;;;;;;6.13;2.78;;;11.50;72.00;;;;;;5105324;28;20032;-74
2023/03/16 12:25:40;;;;;;;3.72;1.80;;;11.60;73.50;;;;;;5115754;28;20031;-74
2023/03/16 12:28:19;;;;;;;6.55;2.42;;;11.60;71.20;;;;;;5115806;28;20115;-74
2023/03/16 12:30:58;;;;;;;2.55;1.63;;;11.70;72.60;;;;;;5115612;28;20031;-74
2023/03/16 12:33:44;;;;;;;4.15;2.22;;;11.80;71.00;;;;;;5115633;28;20020;-74
2023/03/16 12:36:41;;;;;;;5.28;2.30;;;11.90;71.80;;;;;;5115639;28;20502;-74
2023/03/16 12:39:31;;;;;;;3.88;2.05;;;12.00;71.00;;;;;;5115524;28;20024;-74
2023/03/16 12:42:23;;;;;;;2.50;1.80;;;12.10;71.60;;;;;;5115494;28;20027;-74
2023/03/16 12:44:56;;;;;;;3.35;1.45;;;12.40;69.20;;;;;;5115514;28;20024;-74
2023/03/16 12:47:45;;;;;;;2.97;1.55;;;12.50;69.10;;;;;;5115537;28;20020;-75
2023/03/16 12:50:14;;;;;;;2.35;1.77;;;12.70;69.70;;;;;;5115389;28;20028;-75
2023/03/16 12:52:51;;;;;;;2.42;1.90;;;12.70;67.70;;;;;;5115089;28;20052;-75
2023/03/16 12:55:17;;;;;;;2.05;1.80;;;12.70;66.70;;;;;;5115239;28;20028;-74
2023/03/16 12:57:44;;;;;;;3.88;1.70;;;12.70;65.90;;;;;;5115200;28;20035;-75
2023/03/16 13:00:12;;;;;;;1.48;1.38;;;12.80;66.70;;;;;;5115088;28;20049;-75
2023/03/16 13:02:43;;;;;;;2.83;1.70;;;12.70;65.50;;;;;;5114002;28;20038;-75
2023/03/16 13:05:12;;;;;;;4.32;1.88;;;12.90;66.80;;;;;;5114993;28;20073;-75
2023/03/16 13:07:50;;;;;;;2.20;1.42;;;12.90;64.00;;;;;;5114961;28;20525;-75
2023/03/16 13:10:19;;;;;;;5.78;1.65;;;12.90;66.40;;;;;;5114957;28;20107;-75